Time,TemperatureF,DewpointF,PressureIn,WindDirection,WindDirectionDegrees,WindSpeedMPH,WindSpeedGustMPH,Humidity,HourlyPrecipIn,Conditions,Clouds,dailyrainin,SoftwareType,DateUTC
2013-04-14 00:00:00,62.9,55.6,29.83,SE,142,0.0,0.0,77,0.00,,SCT080,0.00,VWS V14.01,2013-04-14 05:00:00,
2013-04-14 00:05:00,62.6,55.3,29.83,SE,142,0.0,0.0,77,0.00,,BKN080,0.00,VWS V14.01,2013-04-14 05:05:00,
2013-04-14 00:10:00,62.4,55.5,29.83,SE,142,0.0,0.0,78,0.00,,BKN080,0.00,VWS V14.01,2013-04-14 05:10:00,
2013-04-14 00:15:00,62.2,55.3,29.83,SE,142,0.0,0.0,78,0.00,,BKN080,0.00,VWS V14.01,2013-04-14 05:15:00,
2013-04-14 00:20:00,61.9,55.3,29.82,SE,142,0.0,0.0,79,0.00,,BKN080,0.00,VWS V14.01,2013-04-14 05:20:00,
2013-04-14 00:25:00,61.8,55.2,29.82,SE,142,0.0,0.0,79,0.00,,BKN080,0.00,VWS V14.01,2013-04-14 05:25:00,
2013-04-14 00:30:00,61.5,55.3,29.82,SE,142,0.0,0.0,80,0.00,,BKN080,0.00,VWS V14.01,2013-04-14 05:30:00,
2013-04-14 00:35:00,61.3,55.4,29.82,SE,142,0.0,0.0,81,0.00,,BKN080,0.00,VWS V14.01,2013-04-14 05:35:00,
2013-04-14 00:40:00,61.1,55.2,29.82,SE,142,0.0,0.0,81,0.00,,BKN080,0.00,VWS V14.01,2013-04-14 05:40:00,
2013-04-14 00:45:00,60.8,55.3,29.82,SE,142,0.0,0.0,82,0.00,,BKN080,0.00,VWS V14.01,2013-04-14 05:45:00,
2013-04-14 00:50:00,60.7,55.5,29.81,SE,142,0.0,0.0,83,0.00,,BKN080,0.00,VWS V14.01,2013-04-14 05:50:00,
2013-04-14 00:55:00,60.5,55.3,29.81,SE,142,0.0,0.0,83,0.00,,BKN080,0.00,VWS V14.01,2013-04-14 05:55:00,
2013-04-14 01:00:00,60.4,55.2,29.81,SE,142,0.0,0.0,83,0.00,,BKN080,0.00,VWS V14.01,2013-04-14 06:00:00,
2013-04-14 01:05:00,60.0,54.8,29.81,SE,142,0.0,0.0,83,0.00,,CLR,0.00,VWS V14.01,2013-04-14 06:05:00,
2013-04-14 01:10:00,59.7,54.9,29.81,SE,142,0.0,0.0,84,0.00,,CLR,0.00,VWS V14.01,2013-04-14 06:10:00,
2013-04-14 01:15:00,59.6,55.1,29.81,SE,142,0.0,0.0,85,0.00,,CLR,0.00,VWS V14.01,2013-04-14 06:15:00,
2013-04-14 01:20:00,59.4,54.9,29.81,SE,142,0.0,0.0,85,0.00,,CLR,0.00,VWS V14.01,2013-04-14 06:20:00,
2013-04-14 01:25:00,59.3,54.8,29.81,SE,142,0.0,0.0,85,0.00,,CLR,0.00,VWS V14.01,2013-04-14 06:25:00,
2013-04-14 01:30:00,59.3,55.4,29.81,SE,142,0.0,0.0,87,0.00,,CLR,0.00,VWS V14.01,2013-04-14 06:30:00,
2013-04-14 01:35:00,59.1,55.2,29.81,SE,142,0.0,0.0,87,0.00,,CLR,0.00,VWS V14.01,2013-04-14 06:35:00,
2013-04-14 01:40:00,59.0,55.1,29.81,SE,142,0.0,0.0,87,0.00,,CLR,0.00,VWS V14.01,2013-04-14 06:40:00,
2013-04-14 01:45:00,59.0,55.5,29.81,SE,142,0.0,0.0,88,0.00,,CLR,0.00,VWS V14.01,2013-04-14 06:45:00,
2013-04-14 01:50:00,58.8,55.3,29.81,SE,142,0.0,0.0,88,0.00,,CLR,0.00,VWS V14.01,2013-04-14 06:50:00,
2013-04-14 01:55:00,58.5,55.0,29.81,SE,142,0.0,0.0,88,0.00,,CLR,0.00,VWS V14.01,2013-04-14 06:55:00,
2013-04-14 02:00:00,58.2,54.7,29.81,SE,142,0.0,0.0,88,0.00,,CLR,0.00,VWS V14.01,2013-04-14 07:00:00,
2013-04-14 02:05:00,57.9,54.4,29.79,SE,142,0.0,0.0,88,0.00,,CLR,0.00,VWS V14.01,2013-04-14 07:05:00,
2013-04-14 02:10:00,57.6,54.1,29.79,SE,142,0.0,0.0,88,0.00,,CLR,0.00,VWS V14.01,2013-04-14 07:10:00,
2013-04-14 02:15:00,57.5,54.0,29.79,SE,142,0.0,0.0,88,0.00,,CLR,0.00,VWS V14.01,2013-04-14 07:15:00,
2013-04-14 02:20:00,57.3,53.8,29.78,SE,142,0.0,0.0,88,0.00,,CLR,0.00,VWS V14.01,2013-04-14 07:20:00,
2013-04-14 02:25:00,57.3,54.1,29.78,SE,142,0.0,0.0,89,0.00,,CLR,0.00,VWS V14.01,2013-04-14 07:25:00,
2013-04-14 02:30:00,57.3,54.1,29.78,SE,142,0.0,0.0,89,0.00,,CLR,0.00,VWS V14.01,2013-04-14 07:30:00,
2013-04-14 02:35:00,57.1,53.9,29.78,SE,142,0.0,0.0,89,0.00,,CLR,0.00,VWS V14.01,2013-04-14 07:35:00,
2013-04-14 02:40:00,57.0,53.8,29.78,SE,142,0.0,0.0,89,0.00,,CLR,0.00,VWS V14.01,2013-04-14 07:40:00,
2013-04-14 02:45:00,56.7,53.5,29.78,SE,142,0.0,1.0,89,0.00,,CLR,0.00,VWS V14.01,2013-04-14 07:45:00,
2013-04-14 02:50:00,56.4,53.5,29.76,SE,142,0.0,0.0,90,0.00,,CLR,0.00,VWS V14.01,2013-04-14 07:50:00,
2013-04-14 02:55:00,56.2,53.3,29.76,SE,142,0.0,0.0,90,0.00,,CLR,0.00,VWS V14.01,2013-04-14 07:55:00,
2013-04-14 03:00:00,56.0,53.1,29.76,SE,142,0.0,0.0,90,0.00,,CLR,0.00,VWS V14.01,2013-04-14 08:00:00,
2013-04-14 03:05:00,55.8,52.9,29.75,SE,142,0.0,0.0,90,0.00,,CLR,0.00,VWS V14.01,2013-04-14 08:05:00,
2013-04-14 03:10:00,55.7,52.8,29.75,SE,142,0.0,0.0,90,0.00,,CLR,0.00,VWS V14.01,2013-04-14 08:10:00,
2013-04-14 03:15:00,55.5,52.6,29.75,SE,142,0.0,0.0,90,0.00,,CLR,0.00,VWS V14.01,2013-04-14 08:15:00,
2013-04-14 03:20:00,55.4,52.5,29.75,SE,142,0.0,0.0,90,0.00,,CLR,0.00,VWS V14.01,2013-04-14 08:20:00,
2013-04-14 03:25:00,55.4,52.8,29.75,SE,142,0.0,0.0,91,0.00,,CLR,0.00,VWS V14.01,2013-04-14 08:25:00,
2013-04-14 03:30:00,55.5,52.9,29.75,SE,142,0.0,0.0,91,0.00,,CLR,0.00,VWS V14.01,2013-04-14 08:30:00,
2013-04-14 03:35:00,55.7,53.1,29.75,SE,142,0.0,0.0,91,0.00,,SCT013,0.00,VWS V14.01,2013-04-14 08:35:00,
2013-04-14 03:40:00,56.0,53.7,29.75,SE,142,0.0,0.0,92,0.00,,SCT013,0.00,VWS V14.01,2013-04-14 08:40:00,
2013-04-14 03:45:00,56.1,53.8,29.75,SE,142,0.0,0.0,92,0.00,,SCT013,0.00,VWS V14.01,2013-04-14 08:45:00,
2013-04-14 03:50:00,56.2,53.9,29.75,SE,142,0.0,0.0,92,0.00,,BKN013,0.00,VWS V14.01,2013-04-14 08:50:00,
2013-04-14 03:55:00,56.2,53.9,29.75,SE,142,0.0,0.0,92,0.00,,BKN013,0.00,VWS V14.01,2013-04-14 08:55:00,
2013-04-14 04:00:00,56.2,53.9,29.75,SE,142,0.0,0.0,92,0.00,,BKN013,0.00,VWS V14.01,2013-04-14 09:00:00,
2013-04-14 04:05:00,56.4,54.1,29.74,SE,142,0.0,0.0,92,0.00,,OVC013,0.00,VWS V14.01,2013-04-14 09:05:00,
2013-04-14 04:10:00,56.4,54.1,29.74,SE,142,0.0,0.0,92,0.00,,OVC013,0.00,VWS V14.01,2013-04-14 09:10:00,
2013-04-14 04:15:00,56.2,53.9,29.74,SE,142,0.0,0.0,92,0.00,,OVC013,0.00,VWS V14.01,2013-04-14 09:15:00,
2013-04-14 04:20:00,56.2,53.9,29.73,SE,142,0.0,0.0,92,0.00,,OVC013,0.00,VWS V14.01,2013-04-14 09:20:00,
2013-04-14 04:25:00,56.1,53.8,29.73,SE,142,0.0,0.0,92,0.00,,OVC013,0.00,VWS V14.01,2013-04-14 09:25:00,
2013-04-14 04:30:00,56.0,53.7,29.73,SE,142,0.0,0.0,92,0.00,,BKN018,0.00,VWS V14.01,2013-04-14 09:30:00,
2013-04-14 04:35:00,55.8,53.5,29.73,SE,142,0.0,0.0,92,0.00,,BKN018,0.00,VWS V14.01,2013-04-14 09:35:00,
2013-04-14 04:40:00,55.8,53.5,29.73,SE,142,0.0,0.0,92,0.00,,BKN018,0.00,VWS V14.01,2013-04-14 09:40:00,
2013-04-14 04:45:00,55.7,53.4,29.73,SE,142,0.0,0.0,92,0.00,,BKN018,0.00,VWS V14.01,2013-04-14 09:45:00,
2013-04-14 04:50:00,55.7,53.4,29.74,SE,142,0.0,0.0,92,0.00,,BKN018,0.00,VWS V14.01,2013-04-14 09:50:00,
2013-04-14 04:55:00,55.5,53.2,29.74,SE,142,0.0,0.0,92,0.00,,BKN018,0.00,VWS V14.01,2013-04-14 09:55:00,
2013-04-14 05:00:00,55.5,53.2,29.74,SE,142,0.0,0.0,92,0.00,,BKN018,0.00,VWS V14.01,2013-04-14 10:00:00,
2013-04-14 05:05:00,55.5,53.5,29.74,SE,142,0.0,0.0,93,0.00,,BKN018,0.00,VWS V14.01,2013-04-14 10:05:00,
2013-04-14 05:10:00,55.5,53.5,29.74,SE,142,0.0,0.0,93,0.00,,OVC018,0.00,VWS V14.01,2013-04-14 10:10:00,
2013-04-14 05:15:00,55.7,53.7,29.74,SE,142,0.0,0.0,93,0.00,,OVC018,0.00,VWS V14.01,2013-04-14 10:15:00,
2013-04-14 05:20:00,55.7,53.7,29.75,SE,142,0.0,0.0,93,0.00,,OVC016,0.00,VWS V14.01,2013-04-14 10:20:00,
2013-04-14 05:25:00,55.8,53.8,29.75,SE,142,0.0,0.0,93,0.00,,OVC016,0.00,VWS V14.01,2013-04-14 10:25:00,
2013-04-14 05:30:00,56.0,54.0,29.75,SE,142,0.0,0.0,93,0.00,,OVC016,0.00,VWS V14.01,2013-04-14 10:30:00,
2013-04-14 05:35:00,56.1,54.1,29.74,SE,142,0.0,0.0,93,0.00,,OVC016,0.00,VWS V14.01,2013-04-14 10:35:00,
2013-04-14 05:40:00,56.2,54.5,29.74,SE,142,0.0,0.0,94,0.00,,OVC016,0.00,VWS V14.01,2013-04-14 10:40:00,
2013-04-14 05:45:00,56.4,54.4,29.74,SE,142,0.0,0.0,93,0.00,,OVC016,0.00,VWS V14.01,2013-04-14 10:45:00,
2013-04-14 05:50:00,56.2,54.2,29.74,SE,142,0.0,0.0,93,0.00,,OVC016,0.00,VWS V14.01,2013-04-14 10:50:00,
2013-04-14 05:55:00,56.2,54.2,29.74,SE,142,0.0,0.0,93,0.00,,OVC016,0.00,VWS V14.01,2013-04-14 10:55:00,
2013-04-14 06:00:00,56.2,54.2,29.74,SE,142,0.0,0.0,93,0.00,,OVC016,0.00,VWS V14.01,2013-04-14 11:00:00,
2013-04-14 06:05:00,56.2,54.2,29.74,SE,142,0.0,0.0,93,0.00,,OVC018,0.00,VWS V14.01,2013-04-14 11:05:00,
2013-04-14 06:10:00,56.2,54.2,29.74,SE,142,0.0,0.0,93,0.00,,OVC018,0.00,VWS V14.01,2013-04-14 11:10:00,
2013-04-14 06:15:00,56.2,54.5,29.74,SE,142,0.0,0.0,94,0.00,,OVC018,0.00,VWS V14.01,2013-04-14 11:15:00,
2013-04-14 06:20:00,56.5,54.8,29.74,SE,142,0.0,0.0,94,0.00,,OVC018,0.00,VWS V14.01,2013-04-14 11:20:00,
2013-04-14 06:25:00,56.5,54.8,29.74,SE,142,0.0,0.0,94,0.00,,OVC018,0.00,VWS V14.01,2013-04-14 11:25:00,
2013-04-14 06:30:00,56.7,55.0,29.74,SE,142,0.0,0.0,94,0.00,,OVC018,0.00,VWS V14.01,2013-04-14 11:30:00,
2013-04-14 06:35:00,56.8,55.1,29.74,SE,142,0.0,0.0,94,0.00,,OVC031,0.00,VWS V14.01,2013-04-14 11:35:00,
2013-04-14 06:40:00,56.8,55.1,29.74,SE,142,0.0,0.0,94,0.00,,OVC031,0.00,VWS V14.01,2013-04-14 11:40:00,
2013-04-14 06:45:00,57.0,55.3,29.74,SE,142,0.0,0.0,94,0.00,,OVC031,0.00,VWS V14.01,2013-04-14 11:45:00,
2013-04-14 06:50:00,57.0,55.3,29.74,SE,142,0.0,0.0,94,0.00,,OVC031,0.00,VWS V14.01,2013-04-14 11:50:00,
2013-04-14 06:55:00,57.1,55.4,29.74,SE,142,0.0,0.0,94,0.00,,OVC031,0.00,VWS V14.01,2013-04-14 11:55:00,
2013-04-14 07:00:00,57.1,55.4,29.74,SE,142,0.0,0.0,94,0.00,,OVC031,0.00,VWS V14.01,2013-04-14 12:00:00,
2013-04-14 07:05:00,57.3,55.6,29.74,SE,142,0.0,0.0,94,0.00,,OVC026,0.00,VWS V14.01,2013-04-14 12:05:00,
2013-04-14 07:10:00,57.3,55.6,29.74,SE,142,0.0,0.0,94,0.00,,OVC026,0.00,VWS V14.01,2013-04-14 12:10:00,
2013-04-14 07:15:00,57.5,55.8,29.74,SE,142,0.0,0.0,94,0.00,,OVC026,0.00,VWS V14.01,2013-04-14 12:15:00,
2013-04-14 07:20:00,57.6,55.9,29.74,SE,142,0.0,0.0,94,0.00,,OVC026,0.00,VWS V14.01,2013-04-14 12:20:00,
2013-04-14 07:25:00,57.9,56.2,29.74,SE,142,0.0,0.0,94,0.00,,OVC026,0.00,VWS V14.01,2013-04-14 12:25:00,
2013-04-14 07:30:00,58.1,56.4,29.74,SE,144,0.0,0.0,94,0.00,,OVC026,0.00,VWS V14.01,2013-04-14 12:30:00,
2013-04-14 07:36:00,58.4,56.7,29.74,SE,145,0.0,2.0,94,0.00,,OVC026,0.00,VWS V14.01,2013-04-14 12:36:00,
2013-04-14 07:40:00,58.7,57.0,29.74,SE,146,0.0,2.0,94,0.00,,OVC023,0.00,VWS V14.01,2013-04-14 12:40:00,
2013-04-14 07:45:00,58.8,57.1,29.74,SE,146,0.0,2.0,94,0.00,,OVC023,0.00,VWS V14.01,2013-04-14 12:45:00,
2013-04-14 07:50:00,58.8,57.1,29.74,SE,146,0.0,0.0,94,0.00,,OVC023,0.00,VWS V14.01,2013-04-14 12:50:00,
2013-04-14 07:55:00,58.8,57.1,29.74,SE,146,0.0,0.0,94,0.00,,OVC023,0.00,VWS V14.01,2013-04-14 12:55:00,
2013-04-14 08:00:00,59.0,57.3,29.74,SE,146,0.0,0.0,94,0.00,,OVC023,0.00,VWS V14.01,2013-04-14 13:00:00,
2013-04-14 08:05:00,59.1,57.4,29.75,SE,146,0.0,2.0,94,0.00,,OVC013,0.00,VWS V14.01,2013-04-14 13:05:00,
2013-04-14 08:10:00,59.3,57.6,29.75,SE,146,0.0,0.0,94,0.00,,OVC005,0.00,VWS V14.01,2013-04-14 13:10:00,
2013-04-14 08:15:00,59.4,57.7,29.75,SE,146,0.0,0.0,94,0.00,,OVC005,0.00,VWS V14.01,2013-04-14 13:15:00,
2013-04-14 08:20:00,59.7,58.0,29.75,SE,146,0.0,0.0,94,0.00,,OVC005,0.00,VWS V14.01,2013-04-14 13:20:00,
2013-04-14 08:25:00,60.0,58.3,29.75,SE,146,0.0,1.0,94,0.00,,OVC005,0.00,VWS V14.01,2013-04-14 13:25:00,
2013-04-14 08:30:00,60.2,58.5,29.75,SE,146,0.0,0.0,94,0.00,,OVC005,0.00,VWS V14.01,2013-04-14 13:30:00,
2013-04-14 08:35:00,60.4,58.7,29.75,SE,146,0.0,2.0,94,0.00,,OVC005,0.00,VWS V14.01,2013-04-14 13:35:00,
2013-04-14 08:40:00,60.4,58.7,29.75,SE,146,0.0,1.0,94,0.00,,,0.00,VWS V14.01,2013-04-14 13:40:00,
2013-04-14 08:45:00,60.7,59.3,29.75,SE,146,0.0,1.0,95,0.00,,,0.00,VWS V14.01,2013-04-14 13:45:00,
2013-04-14 08:50:00,60.4,58.7,29.75,SE,146,0.0,2.0,94,0.00,,BKN016,0.00,VWS V14.01,2013-04-14 13:50:00,
2013-04-14 08:51:00,60.8,59.4,29.76,SE,146,0.0,1.0,95,0.00,,,0.00,VWS V14.01,2013-04-14 13:51:00,
2013-04-14 08:56:00,61.0,59.6,29.76,SE,146,0.0,1.0,95,0.00,,,0.00,VWS V14.01,2013-04-14 13:56:00,
2013-04-14 09:00:00,60.7,59.3,29.76,SE,146,0.0,1.0,95,0.00,,BKN016,0.00,VWS V14.01,2013-04-14 14:00:00,
2013-04-14 09:01:00,61.3,59.9,29.76,SE,146,0.0,0.0,95,0.00,,,0.00,VWS V14.01,2013-04-14 14:01:00,
2013-04-14 09:06:00,61.6,60.2,29.75,SE,146,0.0,0.0,95,0.00,,,0.00,VWS V14.01,2013-04-14 14:06:00,
2013-04-14 09:10:00,61.1,59.7,29.76,SE,146,0.0,1.0,95,0.00,,BKN016,0.00,VWS V14.01,2013-04-14 14:10:00,
2013-04-14 09:11:00,61.9,60.5,29.75,SE,146,0.0,1.0,95,0.00,,,0.00,VWS V14.01,2013-04-14 14:11:00,
2013-04-14 09:16:00,61.9,60.5,29.75,SE,146,0.0,1.0,95,0.00,,,0.00,VWS V14.01,2013-04-14 14:16:00,
2013-04-14 09:20:00,61.8,60.4,29.75,SE,146,0.0,0.0,95,0.00,,BKN016,0.00,VWS V14.01,2013-04-14 14:20:00,
2013-04-14 09:21:00,62.1,60.7,29.76,SE,146,0.0,1.0,95,0.00,,,0.00,VWS V14.01,2013-04-14 14:21:00,
2013-04-14 09:26:00,62.4,61.0,29.76,South,178,0.0,4.0,95,0.00,,,0.00,VWS V14.01,2013-04-14 14:26:00,
2013-04-14 09:30:00,61.9,60.5,29.76,SE,146,0.0,1.0,95,0.00,,BKN016,0.00,VWS V14.01,2013-04-14 14:30:00,
2013-04-14 09:31:00,62.6,61.2,29.76,WSW,242,0.0,3.0,95,0.00,,,0.00,VWS V14.01,2013-04-14 14:31:00,
2013-04-14 09:36:00,62.7,61.2,29.76,WSW,242,0.0,3.0,95,0.00,,,0.00,VWS V14.01,2013-04-14 14:36:00,
2013-04-14 09:40:00,62.6,61.2,29.76,South,179,0.0,4.0,95,0.00,,BKN016,0.00,VWS V14.01,2013-04-14 14:40:00,
2013-04-14 09:41:00,63.0,61.5,29.76,SSW,204,0.0,2.0,95,0.00,,,0.00,VWS V14.01,2013-04-14 14:41:00,
2013-04-14 09:46:00,62.9,61.2,29.76,SSW,198,0.0,4.0,94,0.00,,,0.00,VWS V14.01,2013-04-14 14:46:00,
2013-04-14 09:50:00,62.9,61.5,29.76,SW,224,2.0,4.0,95,0.00,,BKN016,0.00,VWS V14.01,2013-04-14 14:50:00,
2013-04-14 09:51:00,63.0,61.2,29.76,SSW,198,0.0,4.0,94,0.00,,OVC003,0.00,VWS V14.01,2013-04-14 14:51:00,
2013-04-14 09:56:00,63.0,61.2,29.76,SSW,196,0.0,4.0,94,0.00,,OVC003,0.00,VWS V14.01,2013-04-14 14:56:00,
2013-04-14 10:00:00,62.9,61.2,29.76,SSW,198,1.0,4.0,94,0.00,,BKN016,0.00,VWS V14.01,2013-04-14 15:00:00,
2013-04-14 10:01:00,63.2,61.5,29.76,SSW,196,0.0,0.0,94,0.00,,OVC005,0.00,VWS V14.01,2013-04-14 15:01:00,
2013-04-14 10:06:00,63.4,61.7,29.76,SSW,195,2.0,2.0,94,0.00,,OVC005,0.00,VWS V14.01,2013-04-14 15:06:00,
2013-04-14 10:10:00,63.0,61.2,29.76,SSW,196,0.0,4.0,94,0.00,,BKN016,0.00,VWS V14.01,2013-04-14 15:10:00,
2013-04-14 10:12:00,63.5,61.8,29.76,SSW,192,0.0,1.0,94,0.00,,OVC005,0.00,VWS V14.01,2013-04-14 15:12:00,
2013-04-14 10:17:00,63.5,61.8,29.76,SSW,192,0.0,1.0,94,0.00,,OVC005,0.00,VWS V14.01,2013-04-14 15:17:00,
2013-04-14 10:20:00,63.4,61.7,29.76,SSW,195,0.0,2.0,94,0.00,,BKN016,0.00,VWS V14.01,2013-04-14 15:20:00,
2013-04-14 10:21:00,63.5,61.8,29.77,SSW,192,2.0,4.0,94,0.00,,OVC005,0.00,VWS V14.01,2013-04-14 15:21:00,
2013-04-14 10:27:00,63.7,62.0,29.77,SW,225,0.0,5.0,94,0.00,,OVC005,0.00,VWS V14.01,2013-04-14 15:27:00,
2013-04-14 10:30:00,63.5,61.8,29.77,SSW,192,0.0,1.0,94,0.00,,BKN016,0.00,VWS V14.01,2013-04-14 15:30:00,
2013-04-14 10:32:00,63.7,61.6,29.77,SSW,200,2.0,4.0,93,0.00,,,0.00,VWS V14.01,2013-04-14 15:32:00,
2013-04-14 10:37:00,63.8,61.7,29.77,SSW,200,0.0,4.0,93,0.00,,,0.00,VWS V14.01,2013-04-14 15:37:00,
2013-04-14 10:40:00,63.7,61.9,29.77,SW,225,0.0,5.0,94,0.00,,BKN016,0.00,VWS V14.01,2013-04-14 15:40:00,
2013-04-14 10:42:00,64.2,62.1,29.77,SSW,200,0.0,2.0,93,0.00,,,0.00,VWS V14.01,2013-04-14 15:42:00,
2013-04-14 10:47:00,64.2,62.1,29.77,South,176,1.0,6.0,93,0.00,,,0.00,VWS V14.01,2013-04-14 15:47:00,
2013-04-14 10:50:00,63.8,61.7,29.77,SSW,200,0.0,4.0,93,0.00,,BKN016,0.00,VWS V14.01,2013-04-14 15:50:00,
2013-04-14 10:52:00,64.5,62.1,29.77,SSW,206,0.0,4.0,92,0.00,,,0.00,VWS V14.01,2013-04-14 15:52:00,
2013-04-14 10:57:00,64.8,62.4,29.77,SSW,203,0.0,4.0,92,0.00,,,0.00,VWS V14.01,2013-04-14 15:57:00,
2013-04-14 11:00:00,64.3,62.2,29.77,South,176,1.0,6.0,93,0.00,,BKN016,0.00,VWS V14.01,2013-04-14 16:00:00,
2013-04-14 11:02:00,65.1,62.4,29.76,SSW,203,0.0,3.0,91,0.00,,,0.00,VWS V14.01,2013-04-14 16:02:00,
2013-04-14 11:07:00,65.3,62.3,29.76,South,190,0.0,4.0,90,0.00,,,0.00,VWS V14.01,2013-04-14 16:07:00,
2013-04-14 11:10:00,64.8,62.4,29.77,SSW,203,0.0,4.0,92,0.00,,BKN016,0.00,VWS V14.01,2013-04-14 16:10:00,
2013-04-14 11:12:00,65.6,62.6,29.76,SSW,193,0.0,4.0,90,0.00,,,0.00,VWS V14.01,2013-04-14 16:12:00,
2013-04-14 11:17:00,65.9,62.9,29.76,SSW,194,0.0,4.0,90,0.00,,,0.00,VWS V14.01,2013-04-14 16:17:00,
2013-04-14 11:20:00,65.3,62.3,29.76,South,190,0.0,4.0,90,0.00,,BKN016,0.00,VWS V14.01,2013-04-14 16:20:00,
2013-04-14 11:22:00,66.4,63.1,29.76,SSW,192,1.0,3.0,89,0.00,,,0.00,VWS V14.01,2013-04-14 16:22:00,
2013-04-14 11:27:00,67.1,63.1,29.76,South,188,0.0,0.0,87,0.00,,,0.00,VWS V14.01,2013-04-14 16:27:00,
2013-04-14 11:30:00,65.9,62.9,29.76,SSW,194,0.0,4.0,90,0.00,,BKN016,0.00,VWS V14.01,2013-04-14 16:30:00,
2013-04-14 11:32:00,67.6,63.3,29.76,South,188,2.0,2.0,86,0.00,,OVC009,0.00,VWS V14.01,2013-04-14 16:32:00,
2013-04-14 11:37:00,68.1,63.4,29.76,SE,146,2.0,6.0,85,0.00,,OVC009,0.00,VWS V14.01,2013-04-14 16:37:00,
2013-04-14 11:40:00,66.9,62.9,29.76,South,188,0.0,3.0,87,0.00,,BKN016,0.00,VWS V14.01,2013-04-14 16:40:00,
2013-04-14 11:42:00,68.9,63.5,29.76,South,188,2.0,4.0,83,0.00,,OVC012,0.00,VWS V14.01,2013-04-14 16:42:00,
2013-04-14 11:47:00,69.6,63.5,29.76,South,188,0.0,0.0,81,0.00,,OVC012,0.00,VWS V14.01,2013-04-14 16:47:00,
2013-04-14 11:50:00,68.1,63.4,29.76,SE,146,1.0,6.0,85,0.00,,BKN016,0.00,VWS V14.01,2013-04-14 16:50:00,
2013-04-14 11:52:00,70.3,63.5,29.76,SSW,195,0.0,5.0,79,0.00,,OVC012,0.00,VWS V14.01,2013-04-14 16:52:00,
2013-04-14 11:58:00,71.0,63.8,29.76,South,169,1.0,1.0,78,0.00,,OVC012,0.00,VWS V14.01,2013-04-14 16:58:00,
2013-04-14 12:00:00,69.6,63.5,29.76,South,188,0.0,4.0,81,0.00,,BKN016,0.00,VWS V14.01,2013-04-14 17:00:00,
2013-04-14 12:03:00,71.6,64.8,29.75,South,181,0.0,4.0,79,0.00,,BKN016,0.00,VWS V14.01,2013-04-14 17:03:00,
2013-04-14 12:08:00,72.3,64.7,29.75,WNW,294,0.0,0.0,77,0.00,,BKN016,0.00,VWS V14.01,2013-04-14 17:08:00,
2013-04-14 12:10:00,71.0,63.8,29.76,South,169,0.0,5.0,78,0.00,,BKN016,0.00,VWS V14.01,2013-04-14 17:10:00,
2013-04-14 12:13:00,72.8,64.4,29.75,SSW,213,0.0,3.0,75,0.00,,BKN016,0.00,VWS V14.01,2013-04-14 17:13:00,
2013-04-14 12:18:00,73.4,64.2,29.75,South,178,1.0,2.0,73,0.00,,BKN016,0.00,VWS V14.01,2013-04-14 17:18:00,
2013-04-14 12:20:00,72.3,64.7,29.75,WNW,294,0.0,5.0,77,0.00,,BKN016,0.00,VWS V14.01,2013-04-14 17:20:00,
2013-04-14 12:23:00,73.4,63.4,29.75,North,355,0.0,5.0,71,0.00,,BKN016,0.00,VWS V14.01,2013-04-14 17:23:00,
2013-04-14 12:28:00,73.2,64.0,29.75,SSW,210,0.0,0.0,73,0.00,,BKN016,0.00,VWS V14.01,2013-04-14 17:28:00,
2013-04-14 12:30:00,73.4,64.2,29.75,South,178,2.0,4.0,73,0.00,,BKN016,0.00,VWS V14.01,2013-04-14 17:30:00,
2013-04-14 12:33:00,73.5,63.9,29.74,SSE,153,0.0,4.0,72,0.00,,BKN016,0.00,VWS V14.01,2013-04-14 17:33:00,
2013-04-14 12:38:00,73.7,64.1,29.74,North,5,3.0,3.0,72,0.00,,BKN016,0.00,VWS V14.01,2013-04-14 17:38:00,
2013-04-14 12:40:00,73.2,64.0,29.75,SSW,210,0.0,5.0,73,0.00,,BKN016,0.00,VWS V14.01,2013-04-14 17:40:00,
2013-04-14 12:43:00,74.1,64.5,29.74,SW,224,0.0,3.0,72,0.00,,BKN016,0.00,VWS V14.01,2013-04-14 17:43:00,
2013-04-14 12:48:00,74.4,64.8,29.74,SW,216,0.0,0.0,72,0.00,,BKN016,0.00,VWS V14.01,2013-04-14 17:48:00,
2013-04-14 12:50:00,73.7,64.1,29.74,NE,39,1.0,4.0,72,0.00,,BKN016,0.00,VWS V14.01,2013-04-14 17:50:00,
2013-04-14 12:53:00,74.8,64.4,29.74,SSW,209,0.0,3.0,70,0.00,,BKN016,0.00,VWS V14.01,2013-04-14 17:53:00,
2013-04-14 12:58:00,74.9,64.9,29.74,SSW,211,2.0,2.0,71,0.00,,BKN016,0.00,VWS V14.01,2013-04-14 17:58:00,
2013-04-14 13:00:00,74.4,64.8,29.74,SW,216,0.0,3.0,72,0.00,,BKN016,0.00,VWS V14.01,2013-04-14 18:00:00,
2013-04-14 13:03:00,75.1,64.7,29.74,SSW,203,0.0,3.0,70,0.00,,SCT021,0.00,VWS V14.01,2013-04-14 18:03:00,
2013-04-14 13:08:00,75.3,64.0,29.74,NW,315,1.0,2.0,68,0.00,,SCT021,0.00,VWS V14.01,2013-04-14 18:08:00,
2013-04-14 13:10:00,74.9,64.9,29.74,SSW,211,0.0,3.0,71,0.00,,BKN016,0.00,VWS V14.01,2013-04-14 18:10:00,
2013-04-14 13:13:00,75.6,65.5,29.74,SSE,167,0.0,5.0,71,0.00,,BKN023,0.00,VWS V14.01,2013-04-14 18:13:00,
2013-04-14 13:18:00,75.8,64.5,29.73,South,188,1.0,2.0,68,0.00,,BKN023,0.00,VWS V14.01,2013-04-14 18:18:00,
2013-04-14 13:20:00,75.3,64.0,29.74,NW,314,1.0,3.0,68,0.00,,BKN016,0.00,VWS V14.01,2013-04-14 18:20:00,
2013-04-14 13:23:00,76.0,64.3,29.73,WSW,241,0.0,6.0,67,0.00,,BKN023,0.00,VWS V14.01,2013-04-14 18:23:00,
2013-04-14 13:28:00,76.3,64.6,29.73,South,188,3.0,3.0,67,0.00,,BKN023,0.00,VWS V14.01,2013-04-14 18:28:00,
2013-04-14 13:30:00,75.8,64.5,29.73,South,188,2.0,5.0,68,0.00,,BKN016,0.00,VWS V14.01,2013-04-14 18:30:00,
2013-04-14 13:33:00,76.5,65.6,29.72,South,185,0.0,4.0,69,0.00,,BKN023,0.00,VWS V14.01,2013-04-14 18:33:00,
2013-04-14 13:38:00,77.2,65.4,29.72,South,172,5.0,5.0,67,0.00,,BKN023,0.00,VWS V14.01,2013-04-14 18:38:00,
2013-04-14 13:40:00,76.3,64.6,29.73,South,188,0.0,6.0,67,0.00,,BKN016,0.00,VWS V14.01,2013-04-14 18:40:00,
2013-04-14 13:43:00,77.6,66.6,29.72,SW,220,4.0,5.0,69,0.00,,BKN023,0.00,VWS V14.01,2013-04-14 18:43:00,
2013-04-14 13:48:00,77.8,65.1,29.72,SSW,194,5.0,5.0,65,0.00,,BKN023,0.00,VWS V14.01,2013-04-14 18:48:00,
2013-04-14 13:50:00,77.2,65.8,29.72,South,172,1.0,6.0,68,0.00,,BKN016,0.00,VWS V14.01,2013-04-14 18:50:00,
2013-04-14 13:53:00,78.3,65.6,29.72,South,171,4.0,5.0,65,0.00,,BKN023,0.00,VWS V14.01,2013-04-14 18:53:00,
2013-04-14 13:58:00,78.9,64.8,29.72,SSW,213,3.0,3.0,62,0.00,,BKN023,0.00,VWS V14.01,2013-04-14 18:58:00,
2013-04-14 14:00:00,77.8,65.5,29.72,SSW,193,4.0,6.0,66,0.00,,BKN016,0.00,VWS V14.01,2013-04-14 19:00:00,
2013-04-14 14:03:00,78.7,65.1,29.70,South,171,0.0,8.0,63,0.00,,SCT025,0.00,VWS V14.01,2013-04-14 19:03:00,
2013-04-14 14:08:00,79.1,66.3,29.70,South,178,4.0,4.0,65,0.00,,SCT025,0.00,VWS V14.01,2013-04-14 19:08:00,
2013-04-14 14:10:00,78.9,64.8,29.72,SW,214,2.0,6.0,62,0.00,,BKN016,0.00,VWS V14.01,2013-04-14 19:10:00,
2013-04-14 14:13:00,79.8,65.2,29.70,South,179,1.0,6.0,61,0.00,,SCT025,0.00,VWS V14.01,2013-04-14 19:13:00,
2013-04-14 14:18:00,80.4,66.2,29.70,SSW,196,1.0,2.0,62,0.00,,SCT025,0.00,VWS V14.01,2013-04-14 19:18:00,
2013-04-14 14:20:00,79.1,66.3,29.70,SW,216,2.0,8.0,65,0.00,,BKN016,0.00,VWS V14.01,2013-04-14 19:20:00,
2013-04-14 14:23:00,80.4,66.2,29.70,South,186,0.0,4.0,62,0.00,,SCT025,0.00,VWS V14.01,2013-04-14 19:23:00,
2013-04-14 14:28:00,80.7,66.5,29.70,SSE,148,1.0,5.0,62,0.00,,SCT025,0.00,VWS V14.01,2013-04-14 19:28:00,
2013-04-14 14:30:00,80.2,65.5,29.70,SSW,196,0.0,6.0,61,0.00,,BKN016,0.00,VWS V14.01,2013-04-14 19:30:00,
2013-04-14 14:33:00,81.1,65.9,29.69,South,172,0.0,5.0,60,0.00,,SCT025,0.00,VWS V14.01,2013-04-14 19:33:00,
2013-04-14 14:38:00,81.3,67.5,29.69,South,183,0.0,2.0,63,0.00,,SCT025,0.00,VWS V14.01,2013-04-14 19:38:00,
2013-04-14 14:40:00,80.7,66.9,29.70,South,173,2.0,5.0,63,0.00,,BKN016,0.00,VWS V14.01,2013-04-14 19:40:00,
2013-04-14 14:43:00,81.9,66.2,29.69,South,191,0.0,4.0,59,0.00,,SCT025,0.00,VWS V14.01,2013-04-14 19:43:00,
2013-04-14 14:48:00,82.1,65.9,29.68,South,190,3.0,5.0,58,0.00,,SCT025,0.00,VWS V14.01,2013-04-14 19:48:00,
2013-04-14 14:50:00,81.3,67.5,29.69,South,183,2.0,5.0,63,0.00,,BKN016,0.00,VWS V14.01,2013-04-14 19:50:00,
2013-04-14 14:53:00,82.3,66.6,29.68,South,175,1.0,5.0,59,0.00,,SCT025,0.00,VWS V14.01,2013-04-14 19:53:00,
2013-04-14 14:58:00,82.5,65.2,29.68,SSW,200,0.0,4.0,56,0.00,,SCT025,0.00,VWS V14.01,2013-04-14 19:58:00,
2013-04-14 15:00:00,82.1,65.9,29.68,South,187,0.0,4.0,58,0.00,,BKN016,0.00,VWS V14.01,2013-04-14 20:00:00,
2013-04-14 15:03:00,82.7,64.4,29.67,WSW,237,1.0,6.0,54,0.00,,CLR,0.00,VWS V14.01,2013-04-14 20:03:00,
2013-04-14 15:08:00,82.9,67.6,29.67,South,186,1.0,1.0,60,0.00,,CLR,0.00,VWS V14.01,2013-04-14 20:08:00,
2013-04-14 15:10:00,82.5,64.7,29.68,WSW,258,0.0,5.0,55,0.00,,BKN016,0.00,VWS V14.01,2013-04-14 20:10:00,
2013-04-14 15:13:00,83.5,66.2,29.67,SSE,157,0.0,5.0,56,0.00,,CLR,0.00,VWS V14.01,2013-04-14 20:13:00,
2013-04-14 15:18:00,83.6,65.7,29.67,ENE,63,2.0,2.0,55,0.00,,CLR,0.00,VWS V14.01,2013-04-14 20:18:00,
2013-04-14 15:20:00,82.7,66.4,29.67,South,186,0.0,6.0,58,0.00,,BKN016,0.00,VWS V14.01,2013-04-14 20:20:00,
2013-04-14 15:23:00,83.8,65.9,29.67,South,182,1.0,3.0,55,0.00,,CLR,0.00,VWS V14.01,2013-04-14 20:23:00,
2013-04-14 15:28:00,83.8,64.3,29.67,SSW,192,1.0,2.0,52,0.00,,CLR,0.00,VWS V14.01,2013-04-14 20:28:00,
2013-04-14 15:30:00,83.6,64.7,29.67,SSW,194,0.0,5.0,53,0.00,,BKN016,0.00,VWS V14.01,2013-04-14 20:30:00,
2013-04-14 15:33:00,84.0,66.6,29.66,South,177,0.0,5.0,56,0.00,,CLR,0.00,VWS V14.01,2013-04-14 20:33:00,
2013-04-14 15:38:00,84.2,64.1,29.66,South,188,4.0,4.0,51,0.00,,CLR,0.00,VWS V14.01,2013-04-14 20:38:00,
2013-04-14 15:40:00,83.8,64.3,29.67,SSW,192,1.0,7.0,52,0.00,,BKN016,0.00,VWS V14.01,2013-04-14 20:40:00,
2013-04-14 15:43:00,84.2,65.2,29.66,SSW,209,0.0,4.0,53,0.00,,CLR,0.00,VWS V14.01,2013-04-14 20:43:00,
2013-04-14 15:48:00,84.4,64.3,29.66,SW,233,0.0,2.0,51,0.00,,CLR,0.00,VWS V14.01,2013-04-14 20:48:00,
2013-04-14 15:50:00,84.2,65.8,29.66,South,180,2.0,7.0,54,0.00,,BKN016,0.00,VWS V14.01,2013-04-14 20:50:00,
2013-04-14 15:53:00,84.6,65.6,29.66,SSW,200,4.0,6.0,53,0.00,,CLR,0.00,VWS V14.01,2013-04-14 20:53:00,
2013-04-14 15:58:00,84.6,63.9,29.66,South,173,0.0,0.0,50,0.00,,CLR,0.00,VWS V14.01,2013-04-14 20:58:00,
2013-04-14 16:00:00,84.4,64.9,29.66,South,190,2.0,5.0,52,0.00,,BKN016,0.00,VWS V14.01,2013-04-14 21:00:00,
2013-04-14 16:03:00,85.0,64.9,29.65,South,175,0.0,4.0,51,0.00,,CLR,0.00,VWS V14.01,2013-04-14 21:03:00,
2013-04-14 16:08:00,85.4,64.7,29.65,South,178,4.0,4.0,50,0.00,,CLR,0.00,VWS V14.01,2013-04-14 21:08:00,
2013-04-14 16:10:00,84.4,65.4,29.66,South,173,0.0,6.0,53,0.00,,BKN016,0.00,VWS V14.01,2013-04-14 21:10:00,
2013-04-14 16:13:00,85.4,62.9,29.65,South,190,0.0,6.0,47,0.00,,CLR,0.00,VWS V14.01,2013-04-14 21:13:00,
2013-04-14 16:18:00,85.6,64.8,29.64,SW,216,2.0,3.0,50,0.00,,CLR,0.00,VWS V14.01,2013-04-14 21:18:00,
2013-04-14 16:20:00,85.2,63.9,29.65,South,178,1.0,4.0,49,0.00,,BKN016,0.00,VWS V14.01,2013-04-14 21:20:00,
2013-04-14 16:23:00,85.6,63.7,29.64,South,173,0.0,4.0,48,0.00,,CLR,0.00,VWS V14.01,2013-04-14 21:23:00,
2013-04-14 16:28:00,85.4,64.7,29.64,South,187,0.0,6.0,50,0.00,,CLR,0.00,VWS V14.01,2013-04-14 21:28:00,
2013-04-14 16:30:00,85.6,66.5,29.64,South,189,1.0,6.0,53,0.00,,BKN016,0.00,VWS V14.01,2013-04-14 21:30:00,
2013-04-14 16:33:00,85.2,63.3,29.63,WNW,301,2.0,6.0,48,0.00,,CLR,0.00,VWS V14.01,2013-04-14 21:33:00,
2013-04-14 16:38:00,85.2,63.9,29.63,South,175,0.0,1.0,49,0.00,,CLR,0.00,VWS V14.01,2013-04-14 21:38:00,
2013-04-14 16:40:00,85.6,64.3,29.64,South,184,1.0,5.0,49,0.00,,BKN016,0.00,VWS V14.01,2013-04-14 21:40:00,
2013-04-14 16:43:00,85.4,64.1,29.63,SSE,168,2.0,6.0,49,0.00,,CLR,0.00,VWS V14.01,2013-04-14 21:43:00,
2013-04-14 16:48:00,85.4,62.3,29.63,South,175,2.0,2.0,46,0.00,,CLR,0.00,VWS V14.01,2013-04-14 21:48:00,
2013-04-14 16:50:00,85.2,64.5,29.63,South,175,1.0,6.0,50,0.00,,BKN016,0.00,VWS V14.01,2013-04-14 21:50:00,
2013-04-14 16:54:00,85.8,63.9,29.63,SSE,159,0.0,2.0,48,0.00,,CLR,0.00,VWS V14.01,2013-04-14 21:54:00,
2013-04-14 16:59:00,85.8,62.0,29.63,South,180,0.0,4.0,45,0.00,,CLR,0.00,VWS V14.01,2013-04-14 21:59:00,
2013-04-14 17:00:00,85.4,62.9,29.63,South,175,0.0,6.0,47,0.00,,BKN016,0.00,VWS V14.01,2013-04-14 22:00:00,
2013-04-14 17:04:00,86.0,64.0,29.63,South,180,2.0,4.0,48,0.00,,CLR,0.00,VWS V14.01,2013-04-14 22:04:00,
2013-04-14 17:09:00,86.0,61.6,29.63,South,190,1.0,2.0,44,0.00,,CLR,0.00,VWS V14.01,2013-04-14 22:09:00,
2013-04-14 17:10:00,85.8,62.0,29.63,SE,144,0.0,5.0,45,0.00,,BKN016,0.00,VWS V14.01,2013-04-14 22:10:00,
2013-04-14 17:14:00,86.2,61.8,29.63,SSW,198,1.0,4.0,44,0.00,,CLR,0.00,VWS V14.01,2013-04-14 22:14:00,
2013-04-14 17:19:00,86.0,61.6,29.62,SSW,198,0.0,0.0,44,0.00,,CLR,0.00,VWS V14.01,2013-04-14 22:19:00,
2013-04-14 17:20:00,86.0,59.6,29.63,South,190,0.0,4.0,41,0.00,,BKN016,0.00,VWS V14.01,2013-04-14 22:20:00,
2013-04-14 17:24:00,86.2,61.8,29.62,SSW,194,0.0,5.0,44,0.00,,CLR,0.00,VWS V14.01,2013-04-14 22:24:00,
2013-04-14 17:29:00,86.2,61.8,29.62,SSW,194,0.0,2.0,44,0.00,,CLR,0.00,VWS V14.01,2013-04-14 22:29:00,
2013-04-14 17:30:00,86.0,61.6,29.62,SSW,198,0.0,4.0,44,0.00,,BKN016,0.00,VWS V14.01,2013-04-14 22:30:00,
2013-04-14 17:34:00,86.2,61.8,29.62,SSW,194,0.0,3.0,44,0.00,,CLR,0.00,VWS V14.01,2013-04-14 22:34:00,
2013-04-14 17:39:00,86.2,59.1,29.62,South,186,0.0,3.0,40,0.00,,CLR,0.00,VWS V14.01,2013-04-14 22:39:00,
2013-04-14 17:40:00,86.2,61.1,29.62,SSW,194,1.0,5.0,43,0.00,,BKN016,0.00,VWS V14.01,2013-04-14 22:40:00,
2013-04-14 17:44:00,85.8,58.0,29.62,SSW,196,0.0,4.0,39,0.00,,CLR,0.00,VWS V14.01,2013-04-14 22:44:00,
2013-04-14 17:49:00,85.6,58.5,29.61,SSW,202,2.0,2.0,40,0.00,,CLR,0.00,VWS V14.01,2013-04-14 22:49:00,
2013-04-14 17:50:00,86.2,59.1,29.62,South,186,3.0,4.0,40,0.00,,BKN016,0.00,VWS V14.01,2013-04-14 22:50:00,
2013-04-14 17:54:00,85.6,60.6,29.61,SSW,202,0.0,3.0,43,0.00,,CLR,0.00,VWS V14.01,2013-04-14 22:54:00,
2013-04-14 17:59:00,85.4,61.0,29.61,West,267,0.0,0.0,44,0.00,,CLR,0.00,VWS V14.01,2013-04-14 22:59:00,
2013-04-14 18:00:00,85.6,58.5,29.61,SSW,202,1.0,4.0,40,0.00,,BKN016,0.00,VWS V14.01,2013-04-14 23:00:00,
2013-04-14 18:04:00,85.4,60.4,29.61,South,186,1.0,3.0,43,0.00,,CLR,0.00,VWS V14.01,2013-04-14 23:04:00,
2013-04-14 18:09:00,85.2,59.5,29.61,South,186,0.0,3.0,42,0.00,,CLR,0.00,VWS V14.01,2013-04-14 23:09:00,
2013-04-14 18:10:00,85.4,59.7,29.61,West,267,0.0,3.0,42,0.00,,BKN016,0.00,VWS V14.01,2013-04-14 23:10:00,
2013-04-14 18:14:00,85.2,60.2,29.61,SSW,200,0.0,4.0,43,0.00,,CLR,0.00,VWS V14.01,2013-04-14 23:14:00,
2013-04-14 18:19:00,85.2,60.2,29.61,SSW,200,2.0,2.0,43,0.00,,CLR,0.00,VWS V14.01,2013-04-14 23:19:00,
2013-04-14 18:20:00,85.2,59.5,29.61,South,186,0.0,3.0,42,0.00,,BKN016,0.00,VWS V14.01,2013-04-14 23:20:00,
2013-04-14 18:24:00,85.2,59.5,29.61,NW,311,0.0,4.0,42,0.00,,CLR,0.00,VWS V14.01,2013-04-14 23:24:00,
2013-04-14 18:29:00,85.0,57.3,29.61,SSW,198,1.0,1.0,39,0.00,,CLR,0.00,VWS V14.01,2013-04-14 23:29:00,
2013-04-14 18:30:00,85.2,59.5,29.61,SSW,200,0.0,4.0,42,0.00,,BKN016,0.00,VWS V14.01,2013-04-14 23:30:00,
2013-04-14 18:34:00,85.2,58.2,29.61,SSW,192,0.0,2.0,40,0.00,,CLR,0.00,VWS V14.01,2013-04-14 23:34:00,
2013-04-14 18:39:00,85.2,58.9,29.61,SSW,197,0.0,2.0,41,0.00,,CLR,0.00,VWS V14.01,2013-04-14 23:39:00,
2013-04-14 18:40:00,85.0,59.4,29.61,SSW,199,0.0,6.0,42,0.00,,BKN016,0.00,VWS V14.01,2013-04-14 23:40:00,
2013-04-14 18:44:00,85.0,59.4,29.61,SSW,197,0.0,2.0,42,0.00,,CLR,0.00,VWS V14.01,2013-04-14 23:44:00,
2013-04-14 18:49:00,84.8,59.8,29.61,SSW,200,1.0,1.0,43,0.00,,CLR,0.00,VWS V14.01,2013-04-14 23:49:00,
2013-04-14 18:50:00,85.2,58.2,29.61,SSW,197,2.0,5.0,40,0.00,,BKN016,0.00,VWS V14.01,2013-04-14 23:50:00,
2013-04-14 18:54:00,84.6,59.7,29.61,SSW,200,0.0,1.0,43,0.00,,CLR,0.00,VWS V14.01,2013-04-14 23:54:00,
2013-04-14 18:59:00,84.4,60.1,29.61,SSW,200,0.0,0.0,44,0.00,,CLR,0.00,VWS V14.01,2013-04-14 23:59:00,
2013-04-14 19:00:00,84.8,57.8,29.61,SSW,200,0.0,2.0,40,0.00,,BKN016,0.00,VWS V14.01,2013-04-15 00:00:00,
2013-04-14 19:04:00,84.0,61.6,29.61,SSW,200,0.0,0.0,47,0.00,,CLR,0.00,VWS V14.01,2013-04-15 00:04:00,
2013-04-14 19:09:00,83.6,60.0,29.61,SSW,200,0.0,0.0,45,0.00,,CLR,0.00,VWS V14.01,2013-04-15 00:09:00,
2013-04-14 19:10:00,84.4,60.1,29.61,SSW,200,0.0,1.0,44,0.00,,BKN016,0.00,VWS V14.01,2013-04-15 00:10:00,
2013-04-14 19:14:00,83.3,60.4,29.61,SSW,200,0.0,0.0,46,0.00,,CLR,0.00,VWS V14.01,2013-04-15 00:14:00,
2013-04-14 19:19:00,82.9,60.0,29.61,SSW,200,0.0,0.0,46,0.00,,CLR,0.00,VWS V14.01,2013-04-15 00:19:00,
2013-04-14 19:20:00,83.8,60.2,29.61,SSW,200,0.0,0.0,45,0.00,,BKN016,0.00,VWS V14.01,2013-04-15 00:20:00,
2013-04-14 19:24:00,82.5,59.7,29.61,SSW,200,0.0,0.0,46,0.00,,CLR,0.00,VWS V14.01,2013-04-15 00:24:00,
2013-04-14 19:29:00,82.1,59.3,29.61,SSW,200,0.0,0.0,46,0.00,,CLR,0.00,VWS V14.01,2013-04-15 00:29:00,
2013-04-14 19:30:00,83.1,59.6,29.61,SSW,200,0.0,0.0,45,0.00,,BKN016,0.00,VWS V14.01,2013-04-15 00:30:00,
2013-04-14 19:34:00,81.7,60.7,29.61,SSW,200,0.0,0.0,49,0.00,,CLR,0.00,VWS V14.01,2013-04-15 00:34:00,
2013-04-14 19:39:00,81.3,60.9,29.61,SSW,200,0.0,0.0,50,0.00,,CLR,0.00,VWS V14.01,2013-04-15 00:39:00,
2013-04-14 19:40:00,82.3,59.5,29.61,SSW,200,0.0,0.0,46,0.00,,BKN016,0.00,VWS V14.01,2013-04-15 00:40:00,
2013-04-14 19:44:00,80.7,60.3,29.61,SSW,200,0.0,0.0,50,0.00,,CLR,0.00,VWS V14.01,2013-04-15 00:44:00,
2013-04-14 19:49:00,80.4,62.8,29.61,SSW,200,0.0,0.0,55,0.00,,CLR,0.00,VWS V14.01,2013-04-15 00:49:00,
2013-04-14 19:50:00,81.5,59.9,29.61,SSW,200,0.0,0.0,48,0.00,,BKN016,0.00,VWS V14.01,2013-04-15 00:50:00,
2013-04-14 19:54:00,79.8,62.2,29.61,SSW,200,0.0,0.0,55,0.00,,CLR,0.00,VWS V14.01,2013-04-15 00:54:00,
2013-04-14 19:59:00,79.3,61.8,29.61,SSW,200,0.0,0.0,55,0.00,,CLR,0.00,VWS V14.01,2013-04-15 00:59:00,
2013-04-14 20:00:00,80.4,61.7,29.61,SSW,200,0.0,0.0,53,0.00,,BKN016,0.00,VWS V14.01,2013-04-15 01:00:00,
2013-04-14 20:04:00,78.5,62.0,29.61,SSW,200,0.0,0.0,57,0.00,,CLR,0.00,VWS V14.01,2013-04-15 01:04:00,
2013-04-14 20:09:00,78.0,62.0,29.61,SSW,200,0.0,0.0,58,0.00,,CLR,0.00,VWS V14.01,2013-04-15 01:09:00,
2013-04-14 20:10:00,79.4,61.3,29.61,SSW,200,0.0,0.0,54,0.00,,BKN016,0.00,VWS V14.01,2013-04-15 01:10:00,
2013-04-14 20:14:00,77.2,61.3,29.61,SSW,200,0.0,0.0,58,0.00,,CLR,0.00,VWS V14.01,2013-04-15 01:14:00,
2013-04-14 20:19:00,76.7,62.2,29.62,SSW,200,0.0,0.0,61,0.00,,CLR,0.00,VWS V14.01,2013-04-15 01:19:00,
2013-04-14 20:20:00,78.1,61.6,29.61,SSW,200,0.0,0.0,57,0.00,,BKN016,0.00,VWS V14.01,2013-04-15 01:20:00,
2013-04-14 20:24:00,76.0,62.0,29.62,SSW,200,0.0,0.0,62,0.00,,CLR,0.00,VWS V14.01,2013-04-15 01:24:00,
2013-04-14 20:29:00,75.3,61.8,29.62,SSW,200,0.0,0.0,63,0.00,,CLR,0.00,VWS V14.01,2013-04-15 01:29:00,
2013-04-14 20:30:00,76.9,62.4,29.62,SSW,200,0.0,0.0,61,0.00,,BKN016,0.00,VWS V14.01,2013-04-15 01:30:00,
2013-04-14 20:34:00,74.6,61.6,29.62,SSW,200,0.0,0.0,64,0.00,,CLR,0.00,VWS V14.01,2013-04-15 01:34:00,
2013-04-14 20:39:00,74.1,61.6,29.62,SSW,200,0.0,0.0,65,0.00,,CLR,0.00,VWS V14.01,2013-04-15 01:39:00,
2013-04-14 20:40:00,75.5,61.6,29.62,SSW,200,0.0,0.0,62,0.00,,BKN016,0.00,VWS V14.01,2013-04-15 01:40:00,
2013-04-14 20:44:00,73.5,61.5,29.62,SSW,200,0.0,0.0,66,0.00,,CLR,0.00,VWS V14.01,2013-04-15 01:44:00,
2013-04-14 20:49:00,73.2,61.6,29.63,SSW,200,0.0,0.0,67,0.00,,CLR,0.00,VWS V14.01,2013-04-15 01:49:00,
2013-04-14 20:50:00,74.2,61.2,29.62,SSW,200,0.0,0.0,64,0.00,,BKN016,0.00,VWS V14.01,2013-04-15 01:50:00,
2013-04-14 20:54:00,72.5,60.9,29.63,SSW,200,0.0,0.0,67,0.00,,CLR,0.00,VWS V14.01,2013-04-15 01:54:00,
2013-04-14 20:59:00,72.2,61.1,29.63,SSW,200,0.0,0.0,68,0.00,,CLR,0.00,VWS V14.01,2013-04-15 01:59:00,
2013-04-14 21:00:00,73.2,61.2,29.63,SSW,200,0.0,0.0,66,0.00,,BKN016,0.00,VWS V14.01,2013-04-15 02:00:00,
2013-04-14 21:04:00,71.8,61.1,29.64,SSW,200,0.0,1.0,69,0.00,,CLR,0.00,VWS V14.01,2013-04-15 02:04:00,
2013-04-14 21:09:00,71.5,61.6,29.64,SSW,200,0.0,0.0,71,0.00,,CLR,0.00,VWS V14.01,2013-04-15 02:09:00,
2013-04-14 21:10:00,72.3,61.6,29.63,SSW,200,0.0,0.0,69,0.00,,BKN016,0.00,VWS V14.01,2013-04-15 02:10:00,
2013-04-14 21:14:00,71.3,61.4,29.64,SSW,200,0.0,0.0,71,0.00,,CLR,0.00,VWS V14.01,2013-04-15 02:14:00,
2013-04-14 21:19:00,71.1,61.2,29.64,SSW,200,0.0,0.0,71,0.00,,CLR,0.00,VWS V14.01,2013-04-15 02:19:00,
2013-04-14 21:20:00,71.6,61.3,29.64,SSW,200,0.0,1.0,70,0.00,,BKN016,0.00,VWS V14.01,2013-04-15 02:20:00,
2013-04-14 21:24:00,71.0,61.5,29.64,SSW,200,0.0,0.0,72,0.00,,CLR,0.00,VWS V14.01,2013-04-15 02:24:00,
2013-04-14 21:29:00,71.1,62.0,29.64,SSW,200,0.0,0.0,73,0.00,,CLR,0.00,VWS V14.01,2013-04-15 02:29:00,
2013-04-14 21:30:00,71.1,61.2,29.64,SSW,200,0.0,0.0,71,0.00,,BKN016,0.00,VWS V14.01,2013-04-15 02:30:00,
2013-04-14 21:34:00,71.3,62.6,29.64,SSW,200,0.0,0.0,74,0.00,,CLR,0.00,VWS V14.01,2013-04-15 02:34:00,
2013-04-14 21:39:00,71.5,63.2,29.64,SSW,200,0.0,0.0,75,0.00,,CLR,0.00,VWS V14.01,2013-04-15 02:39:00,
2013-04-14 21:40:00,71.1,62.0,29.64,SSW,200,0.0,0.0,73,0.00,,BKN016,0.00,VWS V14.01,2013-04-15 02:40:00,
2013-04-14 21:44:00,72.0,63.7,29.64,SSW,200,0.0,0.0,75,0.00,,CLR,0.00,VWS V14.01,2013-04-15 02:44:00,
2013-04-14 21:49:00,72.7,64.3,29.65,SSW,200,0.0,0.0,75,0.00,,CLR,0.00,VWS V14.01,2013-04-15 02:49:00,
2013-04-14 21:50:00,71.5,62.8,29.64,SSW,200,0.0,0.0,74,0.00,,BKN016,0.00,VWS V14.01,2013-04-15 02:50:00,
2013-04-14 21:54:00,73.2,64.8,29.65,SSW,200,0.0,0.0,75,0.00,,CLR,0.00,VWS V14.01,2013-04-15 02:54:00,
2013-04-14 21:59:00,73.9,65.1,29.65,SSW,200,0.0,0.0,74,0.00,,CLR,0.00,VWS V14.01,2013-04-15 02:59:00,
2013-04-14 22:00:00,72.3,63.9,29.65,SSW,200,0.0,0.0,75,0.00,,BKN016,0.00,VWS V14.01,2013-04-15 03:00:00,
2013-04-14 22:04:00,74.2,65.4,29.66,SSW,200,0.0,1.0,74,0.00,,CLR,0.00,VWS V14.01,2013-04-15 03:04:00,
2013-04-14 22:09:00,74.6,65.8,29.66,SSW,199,0.0,0.0,74,0.00,,CLR,0.00,VWS V14.01,2013-04-15 03:09:00,
2013-04-14 22:10:00,73.7,64.9,29.65,SSW,200,0.0,0.0,74,0.00,,BKN016,0.00,VWS V14.01,2013-04-15 03:10:00,
2013-04-14 22:14:00,74.9,66.1,29.66,SSW,199,0.0,1.0,74,0.00,,CLR,0.00,VWS V14.01,2013-04-15 03:14:00,
2013-04-14 22:19:00,75.1,65.9,29.66,SSW,199,0.0,0.0,73,0.00,,CLR,0.00,VWS V14.01,2013-04-15 03:19:00,
2013-04-14 22:20:00,74.6,65.8,29.66,SSW,199,0.0,2.0,74,0.00,,BKN016,0.00,VWS V14.01,2013-04-15 03:20:00,
2013-04-14 22:24:00,75.1,65.9,29.66,SSW,199,0.0,0.0,73,0.00,,CLR,0.00,VWS V14.01,2013-04-15 03:24:00,
2013-04-14 22:29:00,75.1,65.9,29.66,SSW,199,0.0,0.0,73,0.00,,CLR,0.00,VWS V14.01,2013-04-15 03:29:00,
2013-04-14 22:30:00,75.1,65.9,29.66,SSW,199,0.0,1.0,73,0.00,,BKN016,0.00,VWS V14.01,2013-04-15 03:30:00,
2013-04-14 22:34:00,74.8,66.0,29.67,SSW,199,0.0,1.0,74,0.00,,CLR,0.00,VWS V14.01,2013-04-15 03:34:00,
2013-04-14 22:39:00,74.6,65.8,29.67,SSW,200,0.0,1.0,74,0.00,,CLR,0.00,VWS V14.01,2013-04-15 03:39:00,
2013-04-14 22:40:00,75.1,65.9,29.66,SSW,199,0.0,1.0,73,0.00,,BKN016,0.00,VWS V14.01,2013-04-15 03:40:00,
2013-04-14 22:44:00,74.4,65.6,29.67,SSW,200,0.0,1.0,74,0.00,,CLR,0.00,VWS V14.01,2013-04-15 03:44:00,
2013-04-14 22:49:00,74.2,65.8,29.67,SSW,200,0.0,0.0,75,0.00,,CLR,0.00,VWS V14.01,2013-04-15 03:49:00,
2013-04-14 22:50:00,74.6,65.8,29.67,SSW,199,0.0,1.0,74,0.00,,BKN016,0.00,VWS V14.01,2013-04-15 03:50:00,
2013-04-14 22:54:00,74.1,65.7,29.67,SSW,200,0.0,1.0,75,0.00,,CLR,0.00,VWS V14.01,2013-04-15 03:54:00,
2013-04-14 22:59:00,73.7,65.7,29.67,SSW,200,0.0,1.0,76,0.00,,CLR,0.00,VWS V14.01,2013-04-15 03:59:00,
2013-04-14 23:00:00,73.7,65.7,29.67,SSW,200,0.0,1.0,76,0.00,,CLR,0.00,VWS V14.01,2013-04-15 04:00:00,
2013-04-14 23:05:00,73.5,65.5,29.68,SSW,200,0.0,1.0,76,0.00,,CLR,0.00,VWS V14.01,2013-04-15 04:05:00,
2013-04-14 23:10:00,73.4,65.4,29.68,SSW,200,0.0,0.0,76,0.00,,CLR,0.00,VWS V14.01,2013-04-15 04:10:00,
2013-04-14 23:15:00,73.0,65.4,29.68,SSW,200,0.0,1.0,77,0.00,,CLR,0.00,VWS V14.01,2013-04-15 04:15:00,
2013-04-14 23:20:00,72.8,65.2,29.69,SSW,200,0.0,0.0,77,0.00,,CLR,0.00,VWS V14.01,2013-04-15 04:20:00,
2013-04-14 23:25:00,72.5,65.3,29.69,SSW,200,0.0,1.0,78,0.00,,CLR,0.00,VWS V14.01,2013-04-15 04:25:00,
2013-04-14 23:30:00,72.3,65.4,29.69,SSW,199,1.0,2.0,79,0.00,,CLR,0.00,VWS V14.01,2013-04-15 04:30:00,
2013-04-14 23:35:00,72.3,65.4,29.69,South,188,0.0,4.0,79,0.00,,CLR,0.00,VWS V14.01,2013-04-15 04:35:00,
2013-04-14 23:40:00,72.3,65.4,29.69,SSE,157,0.0,1.0,79,0.00,,CLR,0.00,VWS V14.01,2013-04-15 04:40:00,
2013-04-14 23:45:00,72.3,65.4,29.69,SSE,157,0.0,1.0,79,0.00,,CLR,0.00,VWS V14.01,2013-04-15 04:45:00,
2013-04-14 23:50:00,72.2,65.3,29.69,SSE,157,0.0,1.0,79,0.00,,CLR,0.00,VWS V14.01,2013-04-15 04:50:00,
2013-04-14 23:55:00,72.0,65.5,29.69,SSE,157,0.0,1.0,80,0.00,,CLR,0.00,VWS V14.01,2013-04-15 04:55:00,